createdAt,value
2023-01-29T00:00:06.404Z,1012.60
2023-01-29T00:00:16.738Z,1012.64
2023-01-29T00:00:26.392Z,1012.66
2023-01-29T00:00:36.399Z,1012.64
2023-01-29T00:00:46.472Z,1012.66
2023-01-29T00:00:56.477Z,1012.71
2023-01-29T00:01:06.404Z,1012.70
2023-01-29T00:01:16.380Z,1012.66
2023-01-29T00:01:26.403Z,1012.68
2023-01-29T00:01:36.455Z,1012.67
2023-01-29T00:01:46.422Z,1012.69
2023-01-29T00:01:56.442Z,1012.76
2023-01-29T00:02:07.079Z,1012.69
2023-01-29T00:02:16.520Z,1012.61
2023-01-29T00:02:26.414Z,1012.69
2023-01-29T00:02:36.426Z,1012.70
2023-01-29T00:02:46.399Z,1012.66
2023-01-29T00:02:56.413Z,1012.66
2023-01-29T00:03:06.419Z,1012.67
2023-01-29T00:03:16.454Z,1012.63
2023-01-29T00:03:26.447Z,1012.69
2023-01-29T00:03:36.420Z,1012.67
2023-01-29T00:03:46.374Z,1012.66
2023-01-29T00:03:56.391Z,1012.62
2023-01-29T00:04:06.418Z,1012.62
2023-01-29T00:04:16.372Z,1012.59
2023-01-29T00:04:26.395Z,1012.66
2023-01-29T00:04:36.423Z,1012.64
2023-01-29T00:04:46.381Z,1012.65
2023-01-29T00:04:59.063Z,1012.59
2023-01-29T00:05:25.448Z,1012.65
2023-01-29T00:05:27.546Z,1012.61
2023-01-29T00:05:36.384Z,1012.54
2023-01-29T00:05:46.375Z,1012.64
2023-01-29T00:05:56.401Z,1012.64
2023-01-29T00:06:06.362Z,1012.63
2023-01-29T00:06:16.376Z,1012.56
2023-01-29T00:06:27.036Z,1012.57
2023-01-29T00:06:36.361Z,1012.53
2023-01-29T00:06:46.391Z,1012.58
2023-01-29T00:06:56.388Z,1012.59
2023-01-29T00:07:06.364Z,1012.60
2023-01-29T00:07:16.383Z,1012.61
2023-01-29T00:07:26.360Z,1012.57
2023-01-29T00:07:36.567Z,1012.60
2023-01-29T00:07:46.398Z,1012.59
2023-01-29T00:07:56.533Z,1012.60
2023-01-29T00:08:06.363Z,1012.65
2023-01-29T00:08:16.387Z,1012.62
2023-01-29T00:08:26.365Z,1012.61
2023-01-29T00:08:36.358Z,1012.56
2023-01-29T00:08:46.385Z,1012.57
2023-01-29T00:08:56.353Z,1012.53
2023-01-29T00:09:06.371Z,1012.60
2023-01-29T00:09:16.415Z,1012.57
2023-01-29T00:09:26.428Z,1012.53
2023-01-29T00:09:36.363Z,1012.51
2023-01-29T00:09:46.400Z,1012.62
2023-01-29T00:09:56.349Z,1012.55
2023-01-29T00:10:06.371Z,1012.57
2023-01-29T00:10:16.930Z,1012.58
2023-01-29T00:10:20.921Z,1012.56
2023-01-29T00:10:26.344Z,1012.55
2023-01-29T00:10:36.388Z,1012.56
2023-01-29T00:10:46.341Z,1012.54
2023-01-29T00:10:56.351Z,1012.56
2023-01-29T00:11:06.362Z,1012.56
2023-01-29T00:11:16.353Z,1012.56
2023-01-29T00:11:26.347Z,1012.59
2023-01-29T00:11:36.474Z,1012.54
2023-01-29T00:11:46.346Z,1012.55
2023-01-29T00:11:56.358Z,1012.54
2023-01-29T00:12:06.469Z,1012.58
2023-01-29T00:12:16.344Z,1012.62
2023-01-29T00:12:26.402Z,1012.61
2023-01-29T00:12:36.353Z,1012.57
2023-01-29T00:12:46.337Z,1012.56
2023-01-29T00:12:56.373Z,1012.61
2023-01-29T00:13:06.369Z,1012.58
2023-01-29T00:13:16.351Z,1012.64
2023-01-29T00:13:27.111Z,1012.61
2023-01-29T00:13:36.396Z,1012.62
2023-01-29T00:13:46.429Z,1012.63
2023-01-29T00:13:56.374Z,1012.65
2023-01-29T00:14:06.518Z,1012.61
2023-01-29T00:14:16.466Z,1012.62
2023-01-29T00:14:26.340Z,1012.59
2023-01-29T00:14:36.389Z,1012.60
2023-01-29T00:14:47.071Z,1012.57
2023-01-29T00:14:56.346Z,1012.60
2023-01-29T00:15:06.410Z,1012.58
2023-01-29T00:15:16.333Z,1012.63
2023-01-29T00:15:26.475Z,1012.51
2023-01-29T00:15:36.323Z,1012.49
2023-01-29T00:15:47.070Z,1012.52
2023-01-29T00:15:56.359Z,1012.52
2023-01-29T00:16:06.334Z,1012.52
2023-01-29T00:16:16.397Z,1012.53
2023-01-29T00:16:26.319Z,1012.50
2023-01-29T00:16:36.433Z,1012.53
2023-01-29T00:16:46.398Z,1012.43
2023-01-29T00:16:56.349Z,1012.45
2023-01-29T00:17:06.376Z,1012.42
2023-01-29T00:17:16.447Z,1012.48
2023-01-29T00:17:27.088Z,1012.44
2023-01-29T00:17:37.040Z,1012.41
2023-01-29T00:17:46.342Z,1012.43
2023-01-29T00:17:56.315Z,1012.41
2023-01-29T00:18:06.334Z,1012.50
2023-01-29T00:18:16.349Z,1012.48
2023-01-29T00:18:26.309Z,1012.45
2023-01-29T00:18:36.326Z,1012.48
2023-01-29T00:18:46.340Z,1012.45
2023-01-29T00:18:56.306Z,1012.46
2023-01-29T00:19:06.322Z,1012.49
2023-01-29T00:19:16.303Z,1012.45
2023-01-29T00:19:26.309Z,1012.51
2023-01-29T00:19:37.057Z,1012.49
2023-01-29T00:19:46.305Z,1012.50
2023-01-29T00:19:56.311Z,1012.46
2023-01-29T00:20:06.348Z,1012.44
2023-01-29T00:20:16.654Z,1012.45
2023-01-29T00:20:26.399Z,1012.50
2023-01-29T00:20:36.383Z,1012.49
2023-01-29T00:20:46.328Z,1012.50
2023-01-29T00:20:56.307Z,1012.49
2023-01-29T00:21:06.344Z,1012.53
2023-01-29T00:21:16.304Z,1012.51
2023-01-29T00:21:26.325Z,1012.47
2023-01-29T00:21:36.323Z,1012.53
2023-01-29T00:21:47.070Z,1012.53
2023-01-29T00:21:56.319Z,1012.49
2023-01-29T00:22:06.329Z,1012.51
2023-01-29T00:22:16.292Z,1012.51
2023-01-29T00:22:26.318Z,1012.52
2023-01-29T00:22:36.294Z,1012.48
2023-01-29T00:22:46.298Z,1012.50
2023-01-29T00:22:56.313Z,1012.49
2023-01-29T00:23:06.298Z,1012.51
2023-01-29T00:23:16.431Z,1012.51
2023-01-29T00:23:26.317Z,1012.50
2023-01-29T00:23:36.287Z,1012.53
2023-01-29T00:23:46.293Z,1012.52
2023-01-29T00:23:56.347Z,1012.47
2023-01-29T00:24:06.383Z,1012.48
2023-01-29T00:24:16.422Z,1012.53
2023-01-29T00:24:26.376Z,1012.46
2023-01-29T00:24:37.083Z,1012.46
2023-01-29T00:24:46.303Z,1012.48
2023-01-29T00:24:56.324Z,1012.49
2023-01-29T00:25:06.313Z,1012.55
2023-01-29T00:25:16.311Z,1012.51
2023-01-29T00:25:26.301Z,1012.51
2023-01-29T00:25:36.315Z,1012.50
2023-01-29T00:25:46.338Z,1012.48
2023-01-29T00:25:56.285Z,1012.50
2023-01-29T00:26:06.287Z,1012.49
2023-01-29T00:26:16.305Z,1012.50
2023-01-29T00:26:26.289Z,1012.52
2023-01-29T00:26:36.291Z,1012.51
2023-01-29T00:26:46.316Z,1012.48
2023-01-29T00:26:56.282Z,1012.46
2023-01-29T00:27:06.286Z,1012.47
2023-01-29T00:27:16.322Z,1012.55
2023-01-29T00:27:26.384Z,1012.49
2023-01-29T00:27:36.487Z,1012.47
2023-01-29T00:27:46.289Z,1012.51
2023-01-29T00:27:56.348Z,1012.49
2023-01-29T00:28:06.302Z,1012.48
2023-01-29T00:28:16.310Z,1012.44
2023-01-29T00:28:26.302Z,1012.44
2023-01-29T00:28:36.289Z,1012.46
2023-01-29T00:28:46.282Z,1012.41
2023-01-29T00:28:56.269Z,1012.45
2023-01-29T00:29:06.300Z,1012.40
2023-01-29T00:29:16.306Z,1012.45
2023-01-29T00:29:26.374Z,1012.41
2023-01-29T00:29:37.047Z,1012.39
2023-01-29T00:29:46.355Z,1012.40
2023-01-29T00:29:56.283Z,1012.46
2023-01-29T00:30:06.311Z,1012.41
2023-01-29T00:30:16.698Z,1012.42
2023-01-29T00:30:26.283Z,1012.42
2023-01-29T00:30:36.324Z,1012.43
2023-01-29T00:30:46.273Z,1012.41
2023-01-29T00:30:56.484Z,1012.40
2023-01-29T00:31:06.376Z,1012.42
2023-01-29T00:31:16.376Z,1012.43
2023-01-29T00:31:26.428Z,1012.42
2023-01-29T00:31:37.134Z,1012.40
2023-01-29T00:31:46.421Z,1012.40
2023-01-29T00:31:56.409Z,1012.43
2023-01-29T00:32:06.572Z,1012.42
2023-01-29T00:32:16.470Z,1012.42
2023-01-29T00:32:26.271Z,1012.37
2023-01-29T00:32:36.307Z,1012.41
2023-01-29T00:32:46.266Z,1012.43
2023-01-29T00:32:56.264Z,1012.45
2023-01-29T00:33:06.421Z,1012.44
2023-01-29T00:33:16.264Z,1012.38
2023-01-29T00:33:26.276Z,1012.43
2023-01-29T00:33:36.256Z,1012.39
2023-01-29T00:33:46.255Z,1012.40
2023-01-29T00:33:56.299Z,1012.39
2023-01-29T00:34:06.242Z,1012.39
2023-01-29T00:34:16.251Z,1012.46
2023-01-29T00:34:26.309Z,1012.40
2023-01-29T00:34:36.243Z,1012.35
2023-01-29T00:34:46.263Z,1012.38
2023-01-29T00:34:56.246Z,1012.36
2023-01-29T00:35:06.248Z,1012.33
2023-01-29T00:35:16.267Z,1012.41
2023-01-29T00:35:26.271Z,1012.38
2023-01-29T00:35:36.258Z,1012.39
2023-01-29T00:35:46.275Z,1012.36
2023-01-29T00:35:56.287Z,1012.38
2023-01-29T00:36:06.332Z,1012.37
2023-01-29T00:36:16.298Z,1012.35
2023-01-29T00:36:26.245Z,1012.34
2023-01-29T00:36:36.299Z,1012.36
2023-01-29T00:36:46.271Z,1012.33
2023-01-29T00:36:56.233Z,1012.34
2023-01-29T00:37:06.259Z,1012.36
2023-01-29T00:37:16.348Z,1012.35
2023-01-29T00:37:26.235Z,1012.36
2023-01-29T00:37:36.252Z,1012.36
2023-01-29T00:37:46.268Z,1012.28
2023-01-29T00:37:56.228Z,1012.35
2023-01-29T00:38:06.265Z,1012.34
2023-01-29T00:38:16.242Z,1012.30
2023-01-29T00:38:26.253Z,1012.37
2023-01-29T00:38:36.265Z,1012.37
2023-01-29T00:38:46.256Z,1012.36
2023-01-29T00:38:56.231Z,1012.39
2023-01-29T00:39:06.273Z,1012.37
2023-01-29T00:39:16.242Z,1012.32
2023-01-29T00:39:33.619Z,1012.38
2023-01-29T00:39:47.041Z,1012.36
2023-01-29T00:39:48.309Z,1012.37
2023-01-29T00:39:56.232Z,1012.36
2023-01-29T00:40:06.260Z,1012.33
2023-01-29T00:40:16.624Z,1012.33
2023-01-29T00:40:26.334Z,1012.31
2023-01-29T00:40:36.237Z,1012.35
2023-01-29T00:40:46.222Z,1012.34
2023-01-29T00:40:56.246Z,1012.34
2023-01-29T00:41:06.281Z,1012.34
2023-01-29T00:41:16.624Z,1012.33
2023-01-29T00:41:26.293Z,1012.35
2023-01-29T00:41:36.295Z,1012.31
2023-01-29T00:41:46.223Z,1012.32
2023-01-29T00:41:57.080Z,1012.35
2023-01-29T00:42:06.261Z,1012.34
2023-01-29T00:42:16.211Z,1012.30
2023-01-29T00:42:26.228Z,1012.32
2023-01-29T00:42:36.218Z,1012.36
2023-01-29T00:42:46.227Z,1012.31
2023-01-29T00:42:56.242Z,1012.31
2023-01-29T00:43:06.210Z,1012.30
2023-01-29T00:43:16.219Z,1012.25
2023-01-29T00:43:26.218Z,1012.24
2023-01-29T00:43:36.321Z,1012.31
2023-01-29T00:43:46.238Z,1012.26
2023-01-29T00:43:56.251Z,1012.27
2023-01-29T00:44:06.205Z,1012.29
2023-01-29T00:44:16.464Z,1012.25
2023-01-29T00:44:26.291Z,1012.29
2023-01-29T00:44:36.236Z,1012.24
2023-01-29T00:44:46.219Z,1012.22
2023-01-29T00:44:56.213Z,1012.27
2023-01-29T00:45:06.214Z,1012.26
2023-01-29T00:45:16.213Z,1012.21
2023-01-29T00:45:26.267Z,1012.23
2023-01-29T00:45:37.045Z,1012.24
2023-01-29T00:45:46.390Z,1012.20
2023-01-29T00:45:57.097Z,1012.25
2023-01-29T00:46:06.209Z,1012.23
2023-01-29T00:46:16.432Z,1012.22
2023-01-29T00:46:26.315Z,1012.21
2023-01-29T00:46:36.238Z,1012.21
2023-01-29T00:46:46.305Z,1012.21
2023-01-29T00:46:56.271Z,1012.23
2023-01-29T00:47:06.412Z,1012.21
2023-01-29T00:47:16.228Z,1012.21
2023-01-29T00:47:26.200Z,1012.24
2023-01-29T00:47:36.215Z,1012.23
2023-01-29T00:47:46.233Z,1012.24
2023-01-29T00:47:56.205Z,1012.26
2023-01-29T00:48:06.236Z,1012.23
2023-01-29T00:48:16.222Z,1012.22
2023-01-29T00:48:26.273Z,1012.27
2023-01-29T00:48:36.243Z,1012.27
2023-01-29T00:48:46.211Z,1012.28
2023-01-29T00:48:56.206Z,1012.29
2023-01-29T00:49:06.209Z,1012.26
2023-01-29T00:49:16.197Z,1012.28
2023-01-29T00:49:26.206Z,1012.31
2023-01-29T00:49:36.185Z,1012.32
2023-01-29T00:49:46.189Z,1012.28
2023-01-29T00:49:56.188Z,1012.31
2023-01-29T00:50:06.190Z,1012.26
2023-01-29T00:50:16.701Z,1012.28
2023-01-29T00:50:26.184Z,1012.31
2023-01-29T00:50:36.195Z,1012.31
2023-01-29T00:50:46.186Z,1012.29
2023-01-29T00:50:56.189Z,1012.31
2023-01-29T00:51:06.212Z,1012.36
2023-01-29T00:51:16.190Z,1012.32
2023-01-29T00:51:26.186Z,1012.29
2023-01-29T00:51:36.260Z,1012.29
2023-01-29T00:51:46.195Z,1012.31
2023-01-29T00:51:56.268Z,1012.39
2023-01-29T00:52:06.196Z,1012.31
2023-01-29T00:52:16.186Z,1012.32
2023-01-29T00:52:26.197Z,1012.32
2023-01-29T00:52:37.065Z,1012.32
2023-01-29T00:52:47.052Z,1012.31
2023-01-29T00:52:56.181Z,1012.26
2023-01-29T00:53:06.217Z,1012.26
2023-01-29T00:53:16.247Z,1012.25
2023-01-29T00:53:26.179Z,1012.26
2023-01-29T00:53:36.174Z,1012.22
2023-01-29T00:53:46.278Z,1012.24
2023-01-29T00:53:56.210Z,1012.23
2023-01-29T00:54:06.175Z,1012.18
2023-01-29T00:54:16.170Z,1012.22
2023-01-29T00:54:26.187Z,1012.27
2023-01-29T00:54:36.184Z,1012.18
2023-01-29T00:54:46.183Z,1012.20
2023-01-29T00:54:56.195Z,1012.21
2023-01-29T00:55:06.197Z,1012.21
2023-01-29T00:55:16.192Z,1012.16
2023-01-29T00:55:26.216Z,1012.21
2023-01-29T00:55:36.170Z,1012.19
2023-01-29T00:55:46.160Z,1012.21
2023-01-29T00:55:56.158Z,1012.22
2023-01-29T00:56:06.163Z,1012.20
2023-01-29T00:56:16.170Z,1012.19
2023-01-29T00:56:26.162Z,1012.17
2023-01-29T00:56:36.174Z,1012.19
2023-01-29T00:56:46.251Z,1012.16
2023-01-29T00:56:56.156Z,1012.19
2023-01-29T00:57:06.174Z,1012.23
2023-01-29T00:57:16.167Z,1012.22
2023-01-29T00:57:26.151Z,1012.22
2023-01-29T00:57:37.141Z,1012.20
2023-01-29T00:57:46.163Z,1012.18
2023-01-29T00:57:56.169Z,1012.20
2023-01-29T00:58:06.163Z,1012.20
2023-01-29T00:58:16.149Z,1012.19
2023-01-29T00:58:26.158Z,1012.20
2023-01-29T00:58:36.170Z,1012.22
2023-01-29T00:58:46.279Z,1012.21
2023-01-29T00:58:56.179Z,1012.18
2023-01-29T00:59:06.146Z,1012.18
2023-01-29T00:59:16.155Z,1012.21
2023-01-29T00:59:26.147Z,1012.23
2023-01-29T00:59:36.216Z,1012.24
2023-01-29T00:59:46.157Z,1012.27
2023-01-29T00:59:56.157Z,1012.23
2023-01-29T01:00:06.166Z,1012.23
2023-01-29T01:00:16.484Z,1012.27
2023-01-29T01:00:26.172Z,1012.31
2023-01-29T01:00:36.173Z,1012.23
2023-01-29T01:00:46.162Z,1012.26
2023-01-29T01:00:56.231Z,1012.26
2023-01-29T01:01:06.200Z,1012.28
2023-01-29T01:01:16.223Z,1012.29
2023-01-29T01:01:26.156Z,1012.30
2023-01-29T01:01:36.158Z,1012.29
2023-01-29T01:01:46.175Z,1012.27
2023-01-29T01:01:56.291Z,1012.27
2023-01-29T01:02:06.203Z,1012.31
2023-01-29T01:02:16.240Z,1012.34
2023-01-29T01:02:26.138Z,1012.32
2023-01-29T01:02:36.182Z,1012.30
2023-01-29T01:02:46.142Z,1012.27
2023-01-29T01:02:56.144Z,1012.33
2023-01-29T01:03:06.231Z,1012.29
2023-01-29T01:03:16.160Z,1012.29
2023-01-29T01:03:26.144Z,1012.30
2023-01-29T01:03:36.170Z,1012.28
2023-01-29T01:03:46.145Z,1012.31
2023-01-29T01:03:56.147Z,1012.37
2023-01-29T01:04:06.143Z,1012.28
2023-01-29T01:04:16.134Z,1012.28
2023-01-29T01:04:26.144Z,1012.30
2023-01-29T01:04:36.125Z,1012.28
2023-01-29T01:04:46.122Z,1012.29
2023-01-29T01:04:56.121Z,1012.30
2023-01-29T01:05:06.207Z,1012.28
2023-01-29T01:05:16.120Z,1012.32
2023-01-29T01:05:26.124Z,1012.32
2023-01-29T01:05:36.141Z,1012.26
2023-01-29T01:05:46.170Z,1012.27
2023-01-29T01:05:56.128Z,1012.26
2023-01-29T01:06:06.129Z,1012.28
2023-01-29T01:06:16.156Z,1012.27
2023-01-29T01:06:26.121Z,1012.28
2023-01-29T01:06:36.190Z,1012.29
2023-01-29T01:06:46.150Z,1012.31
2023-01-29T01:06:56.115Z,1012.30
2023-01-29T01:07:06.178Z,1012.31
2023-01-29T01:07:16.125Z,1012.34
2023-01-29T01:07:26.137Z,1012.31
2023-01-29T01:07:37.056Z,1012.30
2023-01-29T01:07:46.121Z,1012.29
2023-01-29T01:07:56.141Z,1012.31
2023-01-29T01:08:06.110Z,1012.32
2023-01-29T01:08:16.110Z,1012.33
2023-01-29T01:08:27.064Z,1012.34
2023-01-29T01:08:36.110Z,1012.34
2023-01-29T01:08:46.122Z,1012.32
2023-01-29T01:08:56.111Z,1012.34
2023-01-29T01:09:07.084Z,1012.35
2023-01-29T01:09:16.124Z,1012.38
2023-01-29T01:09:26.112Z,1012.38
2023-01-29T01:09:36.121Z,1012.33
2023-01-29T01:09:46.114Z,1012.34
2023-01-29T01:09:56.122Z,1012.33
2023-01-29T01:10:06.113Z,1012.37
2023-01-29T01:10:16.398Z,1012.34
2023-01-29T01:10:26.103Z,1012.38
2023-01-29T01:10:36.126Z,1012.39
2023-01-29T01:10:47.077Z,1012.36
2023-01-29T01:10:56.098Z,1012.41
2023-01-29T01:11:06.117Z,1012.38
2023-01-29T01:11:16.165Z,1012.39
2023-01-29T01:11:27.083Z,1012.44
2023-01-29T01:11:36.110Z,1012.39
2023-01-29T01:11:46.098Z,1012.41
2023-01-29T01:11:56.122Z,1012.41
2023-01-29T01:12:07.158Z,1012.41
2023-01-29T01:12:16.200Z,1012.40
2023-01-29T01:12:26.104Z,1012.37
2023-01-29T01:12:36.141Z,1012.32
2023-01-29T01:12:46.105Z,1012.36
2023-01-29T01:12:56.144Z,1012.41
2023-01-29T01:13:06.089Z,1012.42
2023-01-29T01:13:16.107Z,1012.43
2023-01-29T01:13:26.114Z,1012.43
2023-01-29T01:13:36.094Z,1012.46
2023-01-29T01:13:46.104Z,1012.42
2023-01-29T01:13:56.157Z,1012.39
2023-01-29T01:14:06.090Z,1012.43
2023-01-29T01:14:16.084Z,1012.40
2023-01-29T01:14:26.098Z,1012.37
2023-01-29T01:14:36.180Z,1012.40
2023-01-29T01:14:46.118Z,1012.41
2023-01-29T01:14:56.182Z,1012.47
2023-01-29T01:15:06.083Z,1012.42
2023-01-29T01:15:16.106Z,1012.42
2023-01-29T01:15:26.079Z,1012.43
2023-01-29T01:15:36.094Z,1012.45
2023-01-29T01:15:47.080Z,1012.44
2023-01-29T01:15:56.098Z,1012.42
2023-01-29T01:16:06.137Z,1012.39
2023-01-29T01:16:16.143Z,1012.40
2023-01-29T01:16:26.263Z,1012.41
2023-01-29T01:16:36.128Z,1012.39
2023-01-29T01:16:46.087Z,1012.38
2023-01-29T01:16:56.076Z,1012.39
2023-01-29T01:17:06.091Z,1012.44
2023-01-29T01:17:16.112Z,1012.38
2023-01-29T01:17:26.156Z,1012.39
2023-01-29T01:17:37.132Z,1012.36
2023-01-29T01:17:46.163Z,1012.40
2023-01-29T01:17:56.149Z,1012.38
2023-01-29T01:18:06.198Z,1012.40
2023-01-29T01:18:16.078Z,1012.40
2023-01-29T01:18:26.088Z,1012.39
2023-01-29T01:18:36.077Z,1012.36
2023-01-29T01:18:46.066Z,1012.41
2023-01-29T01:18:56.068Z,1012.41
2023-01-29T01:19:06.095Z,1012.39
2023-01-29T01:19:16.068Z,1012.38
2023-01-29T01:19:26.076Z,1012.40
2023-01-29T01:19:36.089Z,1012.43
2023-01-29T01:19:46.070Z,1012.43
2023-01-29T01:19:56.091Z,1012.38
2023-01-29T01:20:06.084Z,1012.43
2023-01-29T01:20:16.369Z,1012.36
2023-01-29T01:20:26.063Z,1012.38
2023-01-29T01:20:36.171Z,1012.36
2023-01-29T01:20:46.096Z,1012.42
2023-01-29T01:20:56.058Z,1012.38
2023-01-29T01:21:06.082Z,1012.40
2023-01-29T01:21:16.066Z,1012.38
2023-01-29T01:21:27.075Z,1012.38
2023-01-29T01:21:36.076Z,1012.39
2023-01-29T01:21:46.070Z,1012.33
2023-01-29T01:21:56.107Z,1012.36
2023-01-29T01:22:06.052Z,1012.39
2023-01-29T01:22:16.061Z,1012.37
2023-01-29T01:22:26.071Z,1012.43
2023-01-29T01:22:36.143Z,1012.42
2023-01-29T01:22:46.081Z,1012.47
2023-01-29T01:22:56.048Z,1012.44
2023-01-29T01:23:06.053Z,1012.41
2023-01-29T01:23:16.089Z,1012.44
2023-01-29T01:23:26.053Z,1012.41
2023-01-29T01:23:36.062Z,1012.42
2023-01-29T01:23:46.058Z,1012.38
2023-01-29T01:23:56.174Z,1012.37
2023-01-29T01:24:06.106Z,1012.39
2023-01-29T01:24:16.076Z,1012.44
2023-01-29T01:24:26.090Z,1012.40
2023-01-29T01:24:36.069Z,1012.36
2023-01-29T01:24:46.098Z,1012.42
2023-01-29T01:24:56.052Z,1012.41
2023-01-29T01:25:06.048Z,1012.40
2023-01-29T01:25:16.059Z,1012.45
2023-01-29T01:25:26.065Z,1012.44
2023-01-29T01:25:36.062Z,1012.41
2023-01-29T01:25:46.044Z,1012.40
2023-01-29T01:25:56.100Z,1012.40
2023-01-29T01:26:06.152Z,1012.39
2023-01-29T01:26:16.044Z,1012.40
2023-01-29T01:26:26.044Z,1012.41
2023-01-29T01:26:36.059Z,1012.40
2023-01-29T01:26:46.036Z,1012.34
2023-01-29T01:26:56.055Z,1012.37
2023-01-29T01:27:06.039Z,1012.37
2023-01-29T01:27:16.072Z,1012.39
2023-01-29T01:27:26.049Z,1012.37
2023-01-29T01:27:36.052Z,1012.37
2023-01-29T01:27:46.090Z,1012.35
2023-01-29T01:27:56.037Z,1012.36
2023-01-29T01:28:06.053Z,1012.40
2023-01-29T01:28:16.040Z,1012.34
2023-01-29T01:28:26.060Z,1012.35
2023-01-29T01:28:36.584Z,1012.37
2023-01-29T01:28:46.024Z,1012.35
2023-01-29T01:28:56.062Z,1012.33
2023-01-29T01:29:06.028Z,1012.28
2023-01-29T01:29:16.027Z,1012.29
2023-01-29T01:29:26.041Z,1012.28
2023-01-29T01:29:36.043Z,1012.26
2023-01-29T01:29:46.113Z,1012.29
2023-01-29T01:29:56.021Z,1012.27
2023-01-29T01:30:06.043Z,1012.33
2023-01-29T01:30:16.573Z,1012.26
2023-01-29T01:30:26.039Z,1012.28
2023-01-29T01:30:36.036Z,1012.27
2023-01-29T01:30:46.067Z,1012.24
2023-01-29T01:30:56.106Z,1012.20
2023-01-29T01:31:06.118Z,1012.21
2023-01-29T01:31:16.089Z,1012.21
2023-01-29T01:31:26.164Z,1012.20
2023-01-29T01:31:36.101Z,1012.22
2023-01-29T01:31:46.152Z,1012.19
2023-01-29T01:31:56.105Z,1012.20
2023-01-29T01:32:06.101Z,1012.23
2023-01-29T01:32:16.027Z,1012.18
2023-01-29T01:32:26.034Z,1012.18
2023-01-29T01:32:36.014Z,1012.18
2023-01-29T01:32:46.042Z,1012.18
2023-01-29T01:32:56.117Z,1012.21
2023-01-29T01:33:06.073Z,1012.22
2023-01-29T01:33:16.011Z,1012.19
2023-01-29T01:33:26.011Z,1012.16
2023-01-29T01:33:36.057Z,1012.25
2023-01-29T01:33:46.035Z,1012.23
2023-01-29T01:33:56.021Z,1012.23
2023-01-29T01:34:06.008Z,1012.20
2023-01-29T01:34:16.008Z,1012.21
2023-01-29T01:34:26.002Z,1012.23
2023-01-29T01:34:36.022Z,1012.20
2023-01-29T01:34:46.032Z,1012.22
2023-01-29T01:34:56.004Z,1012.21
2023-01-29T01:35:06.014Z,1012.22
2023-01-29T01:35:16.610Z,1012.22
2023-01-29T01:35:26.020Z,1012.23
2023-01-29T01:35:36.006Z,1012.21
2023-01-29T01:35:46.026Z,1012.22
2023-01-29T01:35:56.015Z,1012.22
2023-01-29T01:36:06.008Z,1012.19
2023-01-29T01:36:16.562Z,1012.23
2023-01-29T01:36:26.001Z,1012.19
2023-01-29T01:36:36.032Z,1012.22
2023-01-29T01:36:45.995Z,1012.18
2023-01-29T01:36:56.013Z,1012.25
2023-01-29T01:37:06.004Z,1012.22
2023-01-29T01:37:15.994Z,1012.23
2023-01-29T01:37:25.988Z,1012.26
2023-01-29T01:37:36.002Z,1012.28
2023-01-29T01:37:46.013Z,1012.25
2023-01-29T01:37:55.995Z,1012.22
2023-01-29T01:38:06.068Z,1012.24
2023-01-29T01:38:16.005Z,1012.23
2023-01-29T01:38:26.014Z,1012.26
2023-01-29T01:38:36.007Z,1012.22
2023-01-29T01:38:46.060Z,1012.22
2023-01-29T01:38:55.996Z,1012.24
2023-01-29T01:39:05.984Z,1012.24
2023-01-29T01:39:16.000Z,1012.30
2023-01-29T01:39:26.017Z,1012.23
2023-01-29T01:39:35.991Z,1012.23
2023-01-29T01:39:45.981Z,1012.21
2023-01-29T01:39:55.999Z,1012.22
2023-01-29T01:40:06.579Z,1012.22
2023-01-29T01:40:16.287Z,1012.24
2023-01-29T01:40:26.012Z,1012.23
2023-01-29T01:40:36.018Z,1012.25
2023-01-29T01:40:45.991Z,1012.26
2023-01-29T01:40:55.986Z,1012.23
2023-01-29T01:41:05.984Z,1012.23
2023-01-29T01:41:15.986Z,1012.22
2023-01-29T01:41:26.552Z,1012.18
2023-01-29T01:41:35.981Z,1012.16
2023-01-29T01:41:45.986Z,1012.19
2023-01-29T01:41:55.991Z,1012.19
2023-01-29T01:42:05.996Z,1012.21
2023-01-29T01:42:15.994Z,1012.20
2023-01-29T01:42:25.989Z,1012.19
2023-01-29T01:42:35.975Z,1012.23
2023-01-29T01:42:45.990Z,1012.21
2023-01-29T01:42:56.163Z,1012.21
2023-01-29T01:43:05.970Z,1012.19
2023-01-29T01:43:16.026Z,1012.20
2023-01-29T01:43:26.025Z,1012.18
2023-01-29T01:43:35.969Z,1012.17
2023-01-29T01:43:45.969Z,1012.20
2023-01-29T01:43:55.965Z,1012.17
2023-01-29T01:44:05.971Z,1012.18
2023-01-29T01:44:15.979Z,1012.19
2023-01-29T01:44:25.977Z,1012.17
2023-01-29T01:44:36.645Z,1012.16
2023-01-29T01:44:45.962Z,1012.16
2023-01-29T01:44:55.958Z,1012.18
2023-01-29T01:45:06.028Z,1012.22
2023-01-29T01:45:15.960Z,1012.21
2023-01-29T01:45:26.138Z,1012.21
2023-01-29T01:45:36.077Z,1012.22
2023-01-29T01:45:46.092Z,1012.21
2023-01-29T01:45:56.017Z,1012.18
2023-01-29T01:46:06.008Z,1012.14
2023-01-29T01:46:15.964Z,1012.17
2023-01-29T01:46:25.960Z,1012.20
2023-01-29T01:46:35.998Z,1012.15
2023-01-29T01:46:45.960Z,1012.20
2023-01-29T01:46:55.957Z,1012.18
2023-01-29T01:47:06.021Z,1012.17
2023-01-29T01:47:15.994Z,1012.21
2023-01-29T01:47:25.958Z,1012.17
2023-01-29T01:47:35.946Z,1012.16
2023-01-29T01:47:45.955Z,1012.15
2023-01-29T01:47:55.968Z,1012.13
2023-01-29T01:48:05.992Z,1012.13
2023-01-29T01:48:15.956Z,1012.11
2023-01-29T01:48:26.025Z,1012.11
2023-01-29T01:48:35.952Z,1012.11
2023-01-29T01:48:45.960Z,1012.12
2023-01-29T01:48:55.977Z,1012.11
2023-01-29T01:49:05.963Z,1012.15
2023-01-29T01:49:15.959Z,1012.13
2023-01-29T01:49:25.949Z,1012.14
2023-01-29T01:49:35.941Z,1012.09
2023-01-29T01:49:45.946Z,1012.13
2023-01-29T01:49:56.011Z,1012.12
2023-01-29T01:50:05.966Z,1012.10
2023-01-29T01:50:16.327Z,1012.10
2023-01-29T01:50:26.005Z,1012.16
2023-01-29T01:50:35.971Z,1012.15
2023-01-29T01:50:45.952Z,1012.13
2023-01-29T01:50:55.970Z,1012.14
2023-01-29T01:51:05.942Z,1012.15
2023-01-29T01:51:16.010Z,1012.13
2023-01-29T01:51:25.941Z,1012.13
2023-01-29T01:51:35.949Z,1012.12
2023-01-29T01:51:45.968Z,1012.10
2023-01-29T01:51:55.940Z,1012.08
2023-01-29T01:52:05.958Z,1012.14
2023-01-29T01:52:15.953Z,1012.13
2023-01-29T01:52:25.929Z,1012.11
2023-01-29T01:52:35.952Z,1012.08
2023-01-29T01:52:46.181Z,1012.11
2023-01-29T01:52:55.928Z,1012.12
2023-01-29T01:53:05.949Z,1012.10
2023-01-29T01:53:15.926Z,1012.11
2023-01-29T01:53:25.931Z,1012.07
2023-01-29T01:53:35.971Z,1012.08
2023-01-29T01:53:45.935Z,1012.09
2023-01-29T01:53:55.930Z,1012.11
2023-01-29T01:54:06.564Z,1012.15
2023-01-29T01:54:15.924Z,1012.07
2023-01-29T01:54:25.931Z,1012.09
2023-01-29T01:54:35.931Z,1012.12
2023-01-29T01:54:45.927Z,1012.08
2023-01-29T01:54:55.932Z,1012.14
2023-01-29T01:55:05.945Z,1012.14
2023-01-29T01:55:15.924Z,1012.15
2023-01-29T01:55:25.945Z,1012.13
2023-01-29T01:55:35.933Z,1012.13
2023-01-29T01:55:45.930Z,1012.12
2023-01-29T01:55:55.914Z,1012.08
2023-01-29T01:56:06.042Z,1012.13
2023-01-29T01:56:15.917Z,1012.09
2023-01-29T01:56:25.920Z,1012.15
2023-01-29T01:56:35.913Z,1012.10
2023-01-29T01:56:45.913Z,1012.08
2023-01-29T01:56:56.012Z,1012.09
2023-01-29T01:57:05.913Z,1012.08
2023-01-29T01:57:16.030Z,1012.16
2023-01-29T01:57:25.933Z,1012.10
2023-01-29T01:57:35.912Z,1012.13
2023-01-29T01:57:45.925Z,1012.11
2023-01-29T01:57:55.933Z,1012.09
2023-01-29T01:58:05.917Z,1012.12
2023-01-29T01:58:15.930Z,1012.11
2023-01-29T01:58:25.946Z,1012.14
2023-01-29T01:58:35.923Z,1012.15
2023-01-29T01:58:45.959Z,1012.12
2023-01-29T01:58:55.930Z,1012.15
2023-01-29T01:59:05.921Z,1012.14
2023-01-29T01:59:15.925Z,1012.17
2023-01-29T01:59:25.934Z,1012.14
2023-01-29T01:59:35.903Z,1012.17
2023-01-29T01:59:46.000Z,1012.10
2023-01-29T01:59:55.942Z,1012.14
2023-01-29T02:00:05.923Z,1012.12
2023-01-29T02:00:16.203Z,1012.12
2023-01-29T02:00:25.903Z,1012.15
2023-01-29T02:00:35.904Z,1012.14
2023-01-29T02:00:45.956Z,1012.14
2023-01-29T02:00:55.962Z,1012.15